createdAt,value
2023-04-10T00:00:24.122Z,99.90
2023-04-10T00:02:51.498Z,99.90
2023-04-10T00:05:18.508Z,99.90
2023-04-10T00:07:45.179Z,99.90
2023-04-10T00:10:11.875Z,99.90
2023-04-10T00:12:38.645Z,99.90
2023-04-10T00:15:05.828Z,99.90
2023-04-10T00:17:32.518Z,99.90
2023-04-10T00:19:59.641Z,99.90
2023-04-10T00:22:26.619Z,99.90
2023-04-10T00:24:53.537Z,99.90
2023-04-10T00:27:20.250Z,99.90
2023-04-10T00:29:46.945Z,99.90
2023-04-10T00:32:14.009Z,99.90
2023-04-10T00:34:40.775Z,99.90
2023-04-10T00:37:08.158Z,99.90
2023-04-10T00:39:34.923Z,99.90
2023-04-10T00:42:02.247Z,99.90
2023-04-10T00:44:29.031Z,99.90
2023-04-10T00:46:55.936Z,99.90
2023-04-10T00:49:22.733Z,99.90
2023-04-10T00:51:49.676Z,99.90
2023-04-10T00:54:16.800Z,99.90
2023-04-10T00:56:44.915Z,99.90
2023-04-10T00:59:11.610Z,99.90
2023-04-10T01:01:38.557Z,99.90
2023-04-10T01:04:05.850Z,99.90
2023-04-10T01:07:09.072Z,99.90
2023-04-10T01:09:55.884Z,99.90
2023-04-10T01:12:40.690Z,99.90
2023-04-10T01:15:12.732Z,99.90
2023-04-10T01:17:59.667Z,99.90
2023-04-10T01:20:30.991Z,99.90
2023-04-10T01:23:42.144Z,99.90
2023-04-10T01:26:13.901Z,99.90
2023-04-10T01:29:00.561Z,99.90
2023-04-10T01:32:16.361Z,99.90
2023-04-10T01:34:50.983Z,99.90
2023-04-10T01:37:23.543Z,99.90
2023-04-10T01:40:13.467Z,99.90
2023-04-10T01:42:45.511Z,99.90
2023-04-10T01:45:18.225Z,99.90
2023-04-10T01:47:48.055Z,99.90
2023-04-10T01:50:16.085Z,99.90
2023-04-10T01:52:43.562Z,99.90
2023-04-10T01:55:21.064Z,99.90
2023-04-10T01:58:00.076Z,99.90
2023-04-10T02:03:58.492Z,99.90
2023-04-10T02:06:43.440Z,99.90
2023-04-10T02:09:15.848Z,99.90
2023-04-10T02:11:54.884Z,99.90
2023-04-10T02:14:24.433Z,99.90
2023-04-10T02:16:54.866Z,99.90
2023-04-10T02:19:23.991Z,99.90
2023-04-10T02:21:51.834Z,99.90
2023-04-10T02:24:20.646Z,99.90
2023-04-10T02:26:52.579Z,99.90
2023-04-10T02:29:19.502Z,99.90
2023-04-10T02:31:47.134Z,99.90
2023-04-10T02:34:14.438Z,99.90
2023-04-10T02:36:41.209Z,99.90
2023-04-10T02:39:10.247Z,99.90
2023-04-10T02:41:46.515Z,99.90
2023-04-10T02:44:14.156Z,99.90
2023-04-10T02:46:42.014Z,99.90
2023-04-10T02:49:09.072Z,99.90
2023-04-10T02:51:36.492Z,99.90
2023-04-10T02:54:04.511Z,99.90
2023-04-10T02:56:35.013Z,99.90
2023-04-10T02:59:02.131Z,99.90
2023-04-10T03:01:30.063Z,99.90
2023-04-10T03:03:58.353Z,99.90
2023-04-10T03:06:28.768Z,99.90
2023-04-10T03:08:57.223Z,99.90
2023-04-10T03:11:24.032Z,99.90
2023-04-10T03:13:50.796Z,99.90
2023-04-10T03:16:18.633Z,99.90
2023-04-10T03:18:46.331Z,99.90
2023-04-10T03:21:13.077Z,99.90
2023-04-10T03:23:39.781Z,99.90
2023-04-10T03:26:06.684Z,99.90
2023-04-10T03:28:37.730Z,99.90
2023-04-10T03:31:06.118Z,99.90
2023-04-10T03:33:35.523Z,99.90
2023-04-10T03:36:03.705Z,99.90
2023-04-10T03:38:30.580Z,99.90
2023-04-10T03:40:57.264Z,99.90
2023-04-10T03:43:26.106Z,99.90
2023-04-10T03:45:52.974Z,99.90
2023-04-10T03:48:21.061Z,99.90
2023-04-10T03:50:47.895Z,99.90
2023-04-10T03:53:17.104Z,99.90
2023-04-10T03:55:44.731Z,99.90
2023-04-10T03:58:13.082Z,99.90
2023-04-10T04:00:40.286Z,99.90
2023-04-10T04:03:18.266Z,99.90
2023-04-10T04:06:03.515Z,99.90
2023-04-10T04:08:39.755Z,99.90
2023-04-10T04:11:25.777Z,99.90
2023-04-10T04:13:57.423Z,99.90
2023-04-10T04:16:35.802Z,99.90
2023-04-10T04:19:21.172Z,99.90
2023-04-10T04:22:20.972Z,99.90
2023-04-10T04:25:26.074Z,99.90
2023-04-10T04:28:25.172Z,99.90
2023-04-10T04:31:10.420Z,99.90
2023-04-10T04:34:03.305Z,99.90
2023-04-10T04:36:48.474Z,99.90
2023-04-10T04:39:34.003Z,99.90
2023-04-10T04:42:23.919Z,99.90
2023-04-10T04:45:10.033Z,99.90
2023-04-10T04:47:55.530Z,99.90
2023-04-10T04:50:30.589Z,99.90
2023-04-10T04:53:16.920Z,99.90
2023-04-10T04:55:55.168Z,99.90
2023-04-10T04:58:40.725Z,99.90
2023-04-10T05:01:30.990Z,99.90
2023-04-10T05:04:18.138Z,99.90
2023-04-10T05:07:03.321Z,99.90
2023-04-10T05:09:53.410Z,99.90
2023-04-10T05:12:41.923Z,99.90
2023-04-10T05:15:22.647Z,99.90
2023-04-10T05:17:58.205Z,99.90
2023-04-10T05:20:40.475Z,99.90
2023-04-10T05:23:39.685Z,99.90
2023-04-10T05:26:15.591Z,99.90
2023-04-10T05:29:05.547Z,99.90
2023-04-10T05:32:04.788Z,99.90
2023-04-10T05:34:40.239Z,99.90
2023-04-10T05:37:12.956Z,99.90
2023-04-10T05:39:55.584Z,99.90
2023-04-10T05:42:57.691Z,99.90
2023-04-10T05:45:50.756Z,99.90
2023-04-10T05:48:30.227Z,99.90
2023-04-10T05:51:20.232Z,99.90
2023-04-10T05:54:06.161Z,99.90
2023-04-10T05:57:01.879Z,99.90
2023-04-10T05:59:34.733Z,99.90
2023-04-10T06:02:20.608Z,99.90
2023-04-10T06:04:48.417Z,99.90
2023-04-10T06:07:16.120Z,99.90
2023-04-10T06:09:42.882Z,99.90
2023-04-10T06:12:10.501Z,99.90
2023-04-10T06:14:39.587Z,99.90
2023-04-10T06:17:07.156Z,99.90
2023-04-10T06:19:33.904Z,99.90
2023-04-10T06:22:00.605Z,99.90
2023-04-10T06:24:27.349Z,99.90
2023-04-10T06:26:56.828Z,99.90
2023-04-10T06:29:24.266Z,99.90
2023-04-10T06:31:51.370Z,99.90
2023-04-10T06:34:18.524Z,99.90
2023-04-10T06:37:06.331Z,99.90
2023-04-10T06:39:34.111Z,99.90
2023-04-10T06:42:01.310Z,99.90
2023-04-10T06:44:39.326Z,99.90
2023-04-10T06:47:06.858Z,99.90
2023-04-10T06:49:33.582Z,99.90
2023-04-10T06:52:00.225Z,99.90
2023-04-10T06:54:26.889Z,99.90
2023-04-10T06:56:58.592Z,99.90
2023-04-10T06:59:25.593Z,99.90
2023-04-10T07:01:52.309Z,99.90
2023-04-10T07:04:18.958Z,99.90
2023-04-10T07:06:45.780Z,99.90
2023-04-10T07:09:12.529Z,99.90
2023-04-10T07:11:39.168Z,99.90
2023-04-10T07:14:05.846Z,99.90
2023-04-10T07:16:32.786Z,99.90
2023-04-10T07:18:59.556Z,99.90
2023-04-10T07:21:27.213Z,99.90
2023-04-10T07:23:54.116Z,99.90
2023-04-10T07:26:21.060Z,99.90
2023-04-10T07:28:47.990Z,99.90
2023-04-10T07:31:14.663Z,99.90
2023-04-10T07:33:41.677Z,99.90
2023-04-10T07:36:08.762Z,99.90
2023-04-10T07:38:35.651Z,99.90
2023-04-10T07:41:02.409Z,99.90
2023-04-10T07:43:29.409Z,99.90
2023-04-10T07:45:56.684Z,99.90
2023-04-10T07:48:23.609Z,99.90
2023-04-10T07:50:50.324Z,99.90
2023-04-10T07:53:17.051Z,99.90
2023-04-10T07:55:45.469Z,99.90
2023-04-10T07:58:12.157Z,99.90
2023-04-10T08:00:38.864Z,99.90
2023-04-10T08:03:06.496Z,99.90
2023-04-10T08:05:35.381Z,99.90
2023-04-10T08:08:03.624Z,99.90
2023-04-10T08:10:30.412Z,99.90
2023-04-10T08:12:57.126Z,99.90
2023-04-10T08:15:23.879Z,99.90
2023-04-10T08:17:50.735Z,99.90
2023-04-10T08:20:17.482Z,99.90
2023-04-10T08:22:44.165Z,99.90
2023-04-10T08:25:10.939Z,99.90
2023-04-10T08:27:38.012Z,99.90
2023-04-10T08:30:05.381Z,99.90
2023-04-10T08:32:32.211Z,99.90
2023-04-10T08:34:59.040Z,99.90
2023-04-10T08:37:26.928Z,99.90
2023-04-10T08:39:53.924Z,99.10
2023-04-10T08:42:20.838Z,98.30
2023-04-10T08:44:49.436Z,98.40
2023-04-10T08:47:21.330Z,98.00
2023-04-10T08:50:03.236Z,98.10
2023-04-10T08:52:31.737Z,97.40
2023-04-10T08:55:01.352Z,96.80
2023-04-10T08:57:29.024Z,97.50
2023-04-10T08:59:56.033Z,95.90
2023-04-10T09:02:22.915Z,95.70
2023-04-10T09:04:52.146Z,95.00
2023-04-10T09:07:19.055Z,95.70
2023-04-10T09:09:45.910Z,94.60
2023-04-10T09:12:14.285Z,94.90
2023-04-10T09:14:42.697Z,94.30
2023-04-10T09:17:23.904Z,94.20
2023-04-10T09:19:53.924Z,93.60
2023-04-10T09:22:32.670Z,93.70
2023-04-10T09:25:00.663Z,93.60
2023-04-10T09:27:28.656Z,93.10
2023-04-10T09:29:55.368Z,92.40
2023-04-10T09:32:44.802Z,93.20
2023-04-10T09:35:13.559Z,92.50
2023-04-10T09:37:42.353Z,92.90
2023-04-10T09:40:25.460Z,92.80
2023-04-10T09:42:52.753Z,92.70
2023-04-10T09:45:20.571Z,91.20
2023-04-10T09:48:03.667Z,90.90
2023-04-10T09:50:39.610Z,89.20
2023-04-10T09:53:11.256Z,89.20
2023-04-10T09:55:38.624Z,88.70
2023-04-10T09:58:06.577Z,88.80
2023-04-10T10:00:42.143Z,88.40
2023-04-10T10:03:11.604Z,88.40
2023-04-10T10:05:41.174Z,88.20
2023-04-10T10:08:10.707Z,88.40
2023-04-10T10:11:02.618Z,86.50
2023-04-10T10:13:46.003Z,86.60
2023-04-10T10:16:26.630Z,84.70
2023-04-10T10:19:09.010Z,87.00
2023-04-10T10:21:36.725Z,86.30
2023-04-10T10:24:07.297Z,84.20
2023-04-10T10:26:36.040Z,84.90
2023-04-10T10:29:10.663Z,84.20
2023-04-10T10:31:38.158Z,84.30
2023-04-10T10:34:07.482Z,84.00
2023-04-10T10:36:37.996Z,80.60
2023-04-10T10:39:39.129Z,82.90
2023-04-10T10:42:25.378Z,82.30
2023-04-10T10:45:09.616Z,83.20
2023-04-10T10:47:42.483Z,81.60
2023-04-10T10:50:09.433Z,81.40
2023-04-10T10:52:45.852Z,81.20
2023-04-10T10:55:24.741Z,82.60
2023-04-10T10:57:53.479Z,78.40
2023-04-10T11:00:25.301Z,82.00
2023-04-10T11:03:27.456Z,80.80
2023-04-10T11:05:55.413Z,77.30
2023-04-10T11:08:47.159Z,80.30
2023-04-10T11:11:16.422Z,78.80
2023-04-10T11:14:05.844Z,76.90
2023-04-10T11:16:34.083Z,76.90
2023-04-10T11:19:13.255Z,78.00
2023-04-10T11:22:00.366Z,76.10
2023-04-10T11:24:27.077Z,73.40
2023-04-10T11:26:53.912Z,75.80
2023-04-10T11:29:40.792Z,73.40
2023-04-10T11:32:08.221Z,74.80
2023-04-10T11:34:43.484Z,74.20
2023-04-10T11:37:10.260Z,75.00
2023-04-10T11:39:36.911Z,74.30
2023-04-10T11:42:04.793Z,74.00
2023-04-10T11:44:36.731Z,74.60
2023-04-10T11:47:03.467Z,75.50
2023-04-10T11:49:32.772Z,75.20
2023-04-10T11:51:59.499Z,74.70
2023-04-10T11:54:27.981Z,75.10
2023-04-10T11:57:02.346Z,75.00
2023-04-10T11:59:30.741Z,74.00
2023-04-10T12:02:10.508Z,74.60
2023-04-10T12:04:37.855Z,75.60
2023-04-10T12:07:04.775Z,74.70
2023-04-10T12:09:31.695Z,74.60
2023-04-10T12:12:04.074Z,74.00
2023-04-10T12:14:35.354Z,74.20
2023-04-10T12:17:03.500Z,76.40
2023-04-10T12:19:30.936Z,74.60
2023-04-10T12:21:59.298Z,75.10
2023-04-10T12:24:48.340Z,73.50
2023-04-10T12:27:28.596Z,74.00
2023-04-10T12:29:56.968Z,74.00
2023-04-10T12:32:27.275Z,75.10
2023-04-10T12:34:59.010Z,74.40
2023-04-10T12:37:46.528Z,75.70
2023-04-10T12:40:13.913Z,77.50
2023-04-10T12:42:42.128Z,74.50
2023-04-10T12:45:10.148Z,75.00
2023-04-10T12:47:48.548Z,77.10
2023-04-10T12:50:16.913Z,76.90
2023-04-10T12:52:45.853Z,73.90
2023-04-10T12:55:17.949Z,77.60
2023-04-10T12:57:46.920Z,78.00
2023-04-10T13:00:17.000Z,75.90
2023-04-10T13:02:44.681Z,78.50
2023-04-10T13:05:11.778Z,76.10
2023-04-10T13:07:39.359Z,76.50
2023-04-10T13:10:07.176Z,77.00
2023-04-10T13:12:34.911Z,77.10
2023-04-10T13:15:02.760Z,77.00
2023-04-10T13:17:29.704Z,77.10
2023-04-10T13:19:56.410Z,78.10
2023-04-10T13:22:23.049Z,78.60
2023-04-10T13:24:49.764Z,78.80
2023-04-10T13:27:16.450Z,80.00
2023-04-10T13:29:43.394Z,80.40
2023-04-10T13:32:10.749Z,80.50
2023-04-10T13:34:37.621Z,80.40
2023-04-10T13:37:04.436Z,78.60
2023-04-10T13:39:31.623Z,80.30
2023-04-10T13:41:59.175Z,79.40
2023-04-10T13:44:25.969Z,79.40
2023-04-10T13:46:52.831Z,78.10
2023-04-10T13:49:20.418Z,79.40
2023-04-10T13:51:47.786Z,80.20
2023-04-10T13:54:17.262Z,79.00
2023-04-10T13:56:47.131Z,80.40
2023-04-10T13:59:14.312Z,79.70
2023-04-10T14:01:41.142Z,80.40
2023-04-10T14:04:08.359Z,78.70
2023-04-10T14:06:35.252Z,79.20
2023-04-10T14:09:01.985Z,80.90
2023-04-10T14:11:28.672Z,80.50
2023-04-10T14:13:55.475Z,80.00
2023-04-10T14:16:22.261Z,80.30
2023-04-10T14:18:48.968Z,80.80
2023-04-10T14:21:15.649Z,82.00
2023-04-10T14:23:42.971Z,82.10
2023-04-10T14:26:09.642Z,82.20
2023-04-10T14:28:36.568Z,82.30
2023-04-10T14:31:04.769Z,82.10
2023-04-10T14:33:31.553Z,82.30
2023-04-10T14:35:58.261Z,82.00
2023-04-10T14:38:24.941Z,83.10
2023-04-10T14:40:51.886Z,82.20
2023-04-10T14:43:19.481Z,81.40
2023-04-10T14:45:46.332Z,81.20
2023-04-10T14:48:13.469Z,81.60
2023-04-10T14:50:40.374Z,82.00
2023-04-10T14:53:09.599Z,82.30
2023-04-10T14:55:37.103Z,82.90
2023-04-10T14:58:04.338Z,82.50
2023-04-10T15:00:32.255Z,82.50
2023-04-10T15:02:59.142Z,82.40
2023-04-10T15:05:26.568Z,81.60
2023-04-10T15:07:53.746Z,83.40
2023-04-10T15:10:20.662Z,82.40
2023-04-10T15:12:47.372Z,81.60
2023-04-10T15:15:14.049Z,82.80
2023-04-10T15:17:41.267Z,83.60
2023-04-10T15:20:08.297Z,83.60
2023-04-10T15:22:35.845Z,82.60
2023-04-10T15:25:02.829Z,83.10
2023-04-10T15:27:29.518Z,82.90
2023-04-10T15:29:56.231Z,83.40
2023-04-10T15:32:22.985Z,83.40
2023-04-10T15:34:49.765Z,82.60
2023-04-10T15:37:16.409Z,84.00
2023-04-10T15:39:43.054Z,83.10
2023-04-10T15:42:09.811Z,83.80
2023-04-10T15:44:36.503Z,84.00
2023-04-10T15:47:03.333Z,82.90
2023-04-10T15:49:37.873Z,83.80
2023-04-10T15:52:08.342Z,84.20
2023-04-10T15:54:35.284Z,84.10
2023-04-10T15:57:02.744Z,84.20
2023-04-10T15:59:29.721Z,84.40
2023-04-10T16:01:56.583Z,83.60
2023-04-10T16:04:23.894Z,84.50
2023-04-10T16:06:51.098Z,84.80
2023-04-10T16:11:47.926Z,82.00
2023-04-10T16:14:14.654Z,84.80
2023-04-10T16:16:41.398Z,84.90
2023-04-10T16:19:08.074Z,84.40
2023-04-10T16:21:34.871Z,84.40
2023-04-10T16:24:01.518Z,84.90
2023-04-10T16:26:28.203Z,85.20
2023-04-10T16:28:54.967Z,84.80
2023-04-10T16:31:21.827Z,83.60
2023-04-10T16:33:48.557Z,84.70
2023-04-10T16:36:15.487Z,84.70
2023-04-10T16:38:42.145Z,84.70
2023-04-10T16:41:09.975Z,84.60
2023-04-10T16:43:36.656Z,84.50
2023-04-10T16:46:03.449Z,82.80
2023-04-10T16:48:30.348Z,84.20
2023-04-10T16:51:04.639Z,83.50
2023-04-10T16:53:32.283Z,83.80
2023-04-10T16:56:00.947Z,84.20
2023-04-10T16:58:29.635Z,83.90
2023-04-10T17:00:56.413Z,83.90
2023-04-10T17:03:23.071Z,83.80
2023-04-10T17:05:49.928Z,84.20
2023-04-10T17:08:16.598Z,84.20
2023-04-10T17:10:43.275Z,82.90
2023-04-10T17:13:09.923Z,83.50
2023-04-10T17:15:36.552Z,83.90
2023-04-10T17:18:03.361Z,83.50
2023-04-10T17:20:30.833Z,84.00
2023-04-10T17:22:57.547Z,84.30
2023-04-10T17:25:24.253Z,84.20
2023-04-10T17:27:51.027Z,84.50
2023-04-10T17:30:17.709Z,84.90
2023-04-10T17:32:44.437Z,84.70
2023-04-10T17:35:11.095Z,85.60
2023-04-10T17:37:37.719Z,85.00
2023-04-10T17:40:04.664Z,85.60
2023-04-10T17:42:31.292Z,85.60
2023-04-10T17:44:58.470Z,85.60
2023-04-10T17:47:25.254Z,85.80
2023-04-10T17:49:52.011Z,85.70
2023-04-10T17:52:18.674Z,85.80
2023-04-10T17:54:45.322Z,85.60
2023-04-10T17:57:12.012Z,86.00
2023-04-10T17:59:38.703Z,86.10
2023-04-10T18:02:05.528Z,86.80
2023-04-10T18:04:32.355Z,87.20
2023-04-10T18:06:59.011Z,88.10
2023-04-10T18:09:25.642Z,86.60
2023-04-10T18:11:52.371Z,87.10
2023-04-10T18:14:19.597Z,88.10
2023-04-10T18:16:46.426Z,88.30
2023-04-10T18:19:13.180Z,88.50
2023-04-10T18:21:41.995Z,89.80
2023-04-10T18:24:13.782Z,90.40
2023-04-10T18:26:40.736Z,90.50
2023-04-10T18:29:07.864Z,90.40
2023-04-10T18:31:34.553Z,91.20
2023-04-10T18:34:07.855Z,90.90
2023-04-10T18:36:35.496Z,91.80
2023-04-10T18:39:02.241Z,91.90
2023-04-10T18:41:28.961Z,91.70
2023-04-10T18:44:04.192Z,92.10
2023-04-10T18:46:32.385Z,92.40
2023-04-10T18:49:00.874Z,92.30
2023-04-10T18:51:28.050Z,92.50
2023-04-10T18:53:55.021Z,92.20
2023-04-10T18:56:21.972Z,93.20
2023-04-10T18:58:50.173Z,93.30
2023-04-10T19:01:19.910Z,93.30
2023-04-10T19:03:49.980Z,94.30
2023-04-10T19:06:23.689Z,94.00
2023-04-10T19:08:51.279Z,94.20
2023-04-10T19:11:18.631Z,94.80
2023-04-10T19:13:45.467Z,94.40
2023-04-10T19:16:19.051Z,94.40
2023-04-10T19:18:49.128Z,94.50
2023-04-10T19:21:15.948Z,94.70
2023-04-10T19:23:46.397Z,94.90
2023-04-10T19:26:13.046Z,94.70
2023-04-10T19:28:39.704Z,95.40
2023-04-10T19:31:06.599Z,95.80
2023-04-10T19:33:33.287Z,95.40
2023-04-10T19:36:00.000Z,95.20
2023-04-10T19:38:27.536Z,95.10
2023-04-10T19:40:54.736Z,94.90
2023-04-10T19:43:21.643Z,95.50
2023-04-10T19:45:48.344Z,95.30
2023-04-10T19:48:16.098Z,95.70
2023-04-10T19:50:42.804Z,95.50
2023-04-10T19:53:12.778Z,96.00
2023-04-10T19:55:40.827Z,95.50
2023-04-10T19:58:13.350Z,96.10
2023-04-10T20:00:47.806Z,96.10
2023-04-10T20:03:15.987Z,96.30
2023-04-10T20:05:42.932Z,96.20
2023-04-10T20:08:09.668Z,96.60
2023-04-10T20:10:36.352Z,96.50
2023-04-10T20:13:03.030Z,96.10
2023-04-10T20:15:29.681Z,96.00
2023-04-10T20:17:56.369Z,96.10
2023-04-10T20:20:23.083Z,96.10
2023-04-10T20:22:49.737Z,96.20
2023-04-10T20:25:16.419Z,95.20
2023-04-10T20:27:43.049Z,95.50
2023-04-10T20:30:10.063Z,95.80
2023-04-10T20:32:37.052Z,94.50
2023-04-10T20:35:03.956Z,94.80
2023-04-10T20:37:30.668Z,94.40
2023-04-10T20:39:57.444Z,94.00
2023-04-10T20:42:24.149Z,94.20
2023-04-10T20:44:50.842Z,94.50
2023-04-10T20:47:17.471Z,94.80
2023-04-10T20:49:44.117Z,93.30
2023-04-10T20:52:10.861Z,93.50
2023-04-10T20:54:37.572Z,92.90
2023-04-10T20:57:05.876Z,92.50
2023-04-10T20:59:33.090Z,91.30
2023-04-10T21:01:59.851Z,91.50
2023-04-10T21:04:26.695Z,91.50
2023-04-10T21:06:53.607Z,91.30
2023-04-10T21:09:20.551Z,91.10
2023-04-10T21:11:47.311Z,91.00
2023-04-10T21:14:14.013Z,90.70
2023-04-10T21:16:42.479Z,90.50
2023-04-10T21:19:09.659Z,90.00
2023-04-10T21:21:36.369Z,90.50
2023-04-10T21:24:03.245Z,90.60
2023-04-10T21:26:29.856Z,90.30
2023-04-10T21:28:56.528Z,90.80
2023-04-10T21:31:23.172Z,90.80
2023-04-10T21:33:49.847Z,90.60
2023-04-10T21:36:16.636Z,90.50
2023-04-10T21:38:43.342Z,90.00
2023-04-10T21:41:10.073Z,89.60
2023-04-10T21:43:38.415Z,89.30
2023-04-10T21:46:06.098Z,90.30
2023-04-10T21:48:32.897Z,89.30
2023-04-10T21:50:59.730Z,89.80
2023-04-10T21:53:26.376Z,88.30
2023-04-10T21:55:53.003Z,88.80
2023-04-10T21:58:19.693Z,89.40
2023-04-10T22:00:47.410Z,88.80
2023-04-10T22:03:20.073Z,88.70
2023-04-10T22:05:48.773Z,87.60
2023-04-10T22:08:15.960Z,89.10
2023-04-10T22:10:45.242Z,87.90
2023-04-10T22:13:19.757Z,89.00
2023-04-10T22:15:54.537Z,88.80
2023-04-10T22:18:21.360Z,88.80
2023-04-10T22:20:47.991Z,89.20
2023-04-10T22:23:14.666Z,89.40
2023-04-10T22:25:41.314Z,90.00
2023-04-10T22:28:07.994Z,90.10
2023-04-10T22:30:35.448Z,89.70
2023-04-10T22:33:02.271Z,89.60
2023-04-10T22:35:29.238Z,88.70
2023-04-10T22:37:56.976Z,89.10
2023-04-10T22:40:23.701Z,88.50
2023-04-10T22:42:50.625Z,88.60
2023-04-10T22:45:17.313Z,88.00
2023-04-10T22:47:44.047Z,89.10
2023-04-10T22:50:10.862Z,88.00
2023-04-10T22:52:37.900Z,88.60
2023-04-10T22:55:06.874Z,88.40
2023-04-10T22:57:33.859Z,88.50
2023-04-10T23:00:00.932Z,88.10
2023-04-10T23:02:27.984Z,89.70
2023-04-10T23:04:55.243Z,89.60
2023-04-10T23:07:21.897Z,88.90
2023-04-10T23:09:48.537Z,88.20
2023-04-10T23:12:15.195Z,88.90
2023-04-10T23:14:41.917Z,89.10
2023-04-10T23:17:08.535Z,88.70
2023-04-10T23:19:35.224Z,89.00
2023-04-10T23:22:01.871Z,89.60
2023-04-10T23:24:28.549Z,88.70
2023-04-10T23:26:55.256Z,89.60
2023-04-10T23:29:21.890Z,89.00
2023-04-10T23:31:48.666Z,89.40
2023-04-10T23:34:15.439Z,89.40
2023-04-10T23:36:42.204Z,89.40
2023-04-10T23:39:08.908Z,90.00
2023-04-10T23:41:35.586Z,89.70
2023-04-10T23:44:02.270Z,89.00
2023-04-10T23:46:28.968Z,89.00
2023-04-10T23:48:56.651Z,89.30
2023-04-10T23:51:23.292Z,88.70
2023-04-10T23:53:50.044Z,89.20
2023-04-10T23:56:16.800Z,88.70
2023-04-10T23:58:43.473Z,89.30
